A- A+ FrançaisEnglishEspañol中国

最近的 OEJN JeddahYSSY SydneyHCMM MogadishuLIMR Novi LigureOERK Riyadh King KhaledEBCI Charleroi-Bruxelles-Sud

飞行员的航空天气,使用METAR(气象机场报告)进行的飞行准备和TAF(终端机场预报:针对以下情况的短期天气预报)航空)。 以及其他资源,例如VAC(目视进近图)和NOTAM(通知飞行员)以进行预试飞行.

METAR, TAF, VAC, NOTAM Jim Hogg County机场 (美国) / OACI KHBV

它位于附近 Hebbronville, Hebbronville 在 7.5 km, Benavides 在 43 km, Freer 在 60 km, Falfurrias 在 60 km, Premont 在 61 km, Noria Willie 在 67 km, San Diego 在 67 km, Medina 在 70 km, Zapata 在 72 km, Rio Bravo 在 73 km,

机场的高度为 Jim Hogg County机场的

202 m = 663 ft

跑道 Jim Hogg County机场的

附近的机场Jim Hogg County机场的

目前的天气 Jim Hogg County机场的 - KHBV

ciel dégagé
21°C

Vent 11 km/h

可提供5天天气预报 Hebbronville 在 7.5 km, Benavides 在 43 km, Freer 在 60 km, Falfurrias 在 60 km, Premont 在 61 km, Noria Willie 在 67 km, San Diego 在 67 km, Medina 在 70 km, Zapata 在 72 km, Rio Bravo 在 73 km,

METAR Jim Hogg County机场的 - KHBV

KHBV 101635Z AUTO 16006KT 4SM BR SCT006 BKN011 OVC023 21/20 A3028 RMK AO2 T02060196

Jim Hogg County机场METAR解码 (美国)

KHBV机场发行的METAR日期2020年03月10日至16:35 GMT. 这是一个自动生成的METAR, 警告:此METAR已过期, 已于 192 天 16 小时 42 分钟.

可见度为6.4 km = 4 sm.

温度为21°C = 70 °F 露点为20°C = 68 °F 。 这相当于94%的相对湿度。.

QNH是1025 hPa = 30.27 inHg

的风6 kt = 11 km/h, 风向为160°.

云:距离600 ft = 180 m. 距云1100 ft = 340 m. 多云2300 ft = 700 m.

薄雾

备注 AO2 T02060196

TAF Jim Hogg County机场的 - KHBV

没有TAF

Jim Hogg County机场的NOTAM

提供的NOTAM不能保证其时事性。 在将其用于飞行准备或在飞行期间使用之前,飞行员是唯一负责验证其有效性的人员。

没有通知

数据源